LTAT/MLX METAR and TAF weather

Enter ICAO airport designator
Station Type Date Time Source
LTAT METAR 2020/06/03 15:20 UTC NOAA

LTAT 031520Z 10007KT 9999 SCT040 25/06 Q1009 NOSIG


Station Type Date Time Source
LTAT Decoded METAR 2020/06/03 15:20 UTC NOAA

Malatya / Erhac, Turkey (LTAT) 38-26N 038-05E 849M
Jun 03, 2020 - 11:20 AM EDT / 2020.06.03 1520 UTC
Wind: from the E (100 degrees) at 8 MPH (7 KT):0
Visibility: greater than 7 mile(s):0
Sky conditions: partly cloudy
Temperature: 77 F (25 C)
Dew Point: 42 F (6 C)
Relative Humidity: 29%
Pressure (altimeter): 29.80 in. Hg (1009 hPa)
ob: LTAT 031520Z 10007KT 9999 SCT040 25/06 Q1009 NOSIG
cycle: 15

Station Type Date Time Source
LTAT TAF 2020/06/03 18:00 UTC NOAA

TAF LTAT 021640Z 0218/0318 VRB02KT 9999 SCT040 BKN100
BECMG 0219/0221 CAVOK
BECMG 0305/0307 SCT040
BECMG 0316/0318 CAVOK

Example: see airport list